ADDS METAR Data INFO
IDs: Format: Raw Decoded Include TAF

Data at: 2009 UTC 18 Jul 2018

KRNM 181953Z COR 30011KT 10SM CLR 32/18 A3001 RMK AO2 SLP145 T03170178
KRNM 181853Z 31009KT 10SM CLR 29/17 A3002 RMK AO2 SLP151 T02940172
KRNM 181753Z 29008KT 10SM CLR 29/17 A3004 RMK AO2 SLP154 T02890172 10289 20183 50000
KRNM 181653Z VRB06KT 10SM CLR 27/17 A3004 RMK AO2 SLP156 T02720172
KRNM 181553Z 00000KT 10SM CLR 23/17 A3006 RMK AO2 SLP164 T02280167
KRNM 181453Z 13005KT 10SM CLR 21/16 A3003 RMK AO2 SLP156 T02060161 53005
KRNM 181426Z AUTO 27003KT 7SM SCT004 19/16 A3004 RMK AO2 T01890161
KRNM 181400Z AUTO 31007KT 7SM BKN006 BKN012 18/16 A3003 RMK AO2 CIG 004V010 T01830161
KRNM 181353Z AUTO 33010G19KT 8SM FEW006 SCT012 19/16 A3003 RMK AO2 PRESRR SLP156 T01890161
KRNM 181253Z AUTO 00000KT 10SM CLR 19/16 A2998 RMK AO2 SLP136 T01940161
KRNM 181153Z AUTO 36003KT 10SM CLR 19/16 A3002 RMK AO2 SLP148 7//// T01890161 10194 20183 51005
KRNM 181053Z AUTO 00000KT 10SM CLR 19/16 A3001 RMK AO2 SLP146 T01890161
KRNM 180953Z AUTO 33003KT 10SM CLR 19/16 A3001 RMK AO2 SLP146 T01890161
KRNM 180853Z AUTO 28004KT 10SM CLR 18/16 A3000 RMK AO2 SLP141 T01830161 55004
KRNM 180753Z AUTO 26003KT 10SM CLR 19/16 A3000 RMK AO2 SLP141 T01890161 403440167
KRNM 180653Z AUTO 29004KT 10SM CLR 19/16 A3000 RMK AO2 SLP143 T01890161
KRNM 180553Z AUTO 29006KT 10SM CLR 19/16 A3002 RMK AO2 SLP148 T01940161 10283 20194 50011
KRNM 180453Z AUTO 25004KT 10SM CLR 21/16 A3003 RMK AO2 SLP153 T02110161
KRNM 180353Z AUTO 27005KT 10SM CLR 22/17 A3000 RMK AO2 SLP143 T02170167
KRNM 180253Z 26008KT 10SM CLR 23/17 A2998 RMK AO2 SLP138 T02280167 53004
KRNM 180153Z 28009KT 10SM CLR 25/17 A2997 RMK AO2 SLP133 T02500172
KRNM 180053Z 29008KT 10SM CLR 27/17 A2996 RMK AO2 SLP129 T02720172
KRNM 172353Z 27010KT 10SM CLR 29/18 A2997 RMK AO2 SLP133 T02890178 10344 20278 53001
KRNM 172253Z 28012G19KT 10SM CLR 31/18 A2996 RMK AO2 SLP130 T03060178
KRNM 172153Z 28012KT 10SM CLR 32/18 A2996 RMK AO2 SLP128 T03220178
KRNM 172053Z 30009KT 10SM CLR 34/18 A2997 RMK AO2 SLP129 T03390178 58012
KRNM 171953Z 34007KT 10SM CLR 32/17 A2998 RMK AO2 SLP134 T03220167
KRNM 171853Z 29009KT 10SM CLR 30/17 A2999 RMK AO2 SLP140 T03000172
KRNM 171753Z AUTO CLR 28/17 A3000 RMK AO2 SLP144 6//// T02780172 10278 20167 58004 $
KRNM 171653Z AUTO VRB05KT 10SM CLR 26/17 A3001 RMK AO2 SLP147 T02560172 PNO $
KRNM 171553Z 00000KT 10SM SCT009 23/17 A3002 RMK AO2 SLP150 T02280172
KRNM 171516Z VRB03KT 10SM SCT009 21/17 A3002 RMK AO2 T02110167
KRNM 171453Z 00000KT 9SM OVC006 19/17 A3002 RMK AO2 SLP149 T01940167 51013
KRNM 171353Z AUTO 00000KT 7SM OVC005 18/17 A3000 RMK AO2 SLP146 T01830167
KRNM 171253Z AUTO 31003KT 9SM OVC005 18/16 A3000 RMK AO2 SLP142 T01780161
KRNM 171238Z AUTO 29003KT 10SM BKN005 17/16 A2999 RMK AO2 T01720156
KRNM 171229Z AUTO 00000KT 10SM SCT005 17/16 A2998 RMK AO2 T01720156
KRNM 171153Z AUTO 00000KT 10SM CLR 17/14 A2998 RMK AO2 SLP135 T01720144 10189 20167 55001
KRNM 171053Z AUTO 00000KT 10SM CLR 18/16 A2997 RMK AO2 SLP131 T01780156
KRNM 170953Z AUTO 00000KT 10SM CLR 18/16 A2998 RMK AO2 SLP133 T01780156
KRNM 170853Z AUTO 30003KT 10SM CLR 18/16 A2998 RMK AO2 SLP134 T01830161 58010